Time;durP1;ratioP1;P1;durP2;ratioP2;P2;SDS_P1;SDS_P2;PMS_P1;PMS_P2;Temp;Humidity;BMP_temperature;BMP_pressure;BME280_temperature;BME280_humidity;BME280_pressure;Samples;Min_cycle;Max_cycle;Signal;HPM_P1;HPM_P2
2022/07/09 00:00:35;;;;;;;8.50;4.63;;;;;;;;;;4965750;28;20218;-73
2022/07/09 00:03:03;;;;;;;9.63;4.17;;;;;;;;;;4958048;28;20260;-72
2022/07/09 00:05:29;;;;;;;8.70;4.27;;;;;;;;;;4991466;28;20274;-72
2022/07/09 00:07:56;;;;;;;5.97;3.90;;;;;;;;;;4977634;28;20222;-72
2022/07/09 00:10:30;;;;;;;6.67;4.47;;;;;;;;;;4962928;28;20225;-73
2022/07/09 00:12:57;;;;;;;6.77;4.20;;;;;;;;;;4969278;28;20256;-73
2022/07/09 00:15:25;;;;;;;7.17;3.87;;;;;;;;;;4961820;28;20264;-73
2022/07/09 00:17:51;;;;;;;6.97;4.10;;;;;;;;;;4978723;28;20217;-72
2022/07/09 00:20:19;;;;;;;10.23;3.90;;;;;;;;;;4955400;28;20224;-74
2022/07/09 00:22:45;;;;;;;7.77;4.23;;;;;;;;;;4970582;28;20320;-73
2022/07/09 00:25:11;;;;;;;6.80;4.00;;;;;;;;;;4978147;28;20282;-73
2022/07/09 00:27:36;;;;;;;10.30;4.53;;;;;;;;;;4981686;28;20228;-73
2022/07/09 00:30:02;;;;;;;6.63;4.00;;;;;;;;;;4968122;28;20229;-74
2022/07/09 00:32:30;;;;;;;11.00;4.43;;;;;;;;;;4954163;28;20706;-73
2022/07/09 00:34:57;;;;;;;6.50;4.17;;;;;;;;;;4968300;28;20239;-73
2022/07/09 00:37:23;;;;;;;8.50;4.57;;;;;;;;;;4976608;28;20233;-73
2022/07/09 00:39:49;;;;;;;9.50;4.90;;;;;;;;;;4965519;28;20229;-74
2022/07/09 00:42:14;;;;;;;10.70;4.60;;;;;;;;;;4991982;28;20233;-74
2022/07/09 00:44:42;;;;;;;9.00;5.00;;;;;;;;;;4986739;28;20229;-73
2022/07/09 00:47:10;;;;;;;8.30;4.33;;;;;;;;;;4984705;23;20292;-85
2022/07/09 00:49:42;;;;;;;9.82;4.47;;;;;;;;;;4982040;28;20294;-84
2022/07/09 00:52:12;;;;;;;8.87;4.33;;;;;;;;;;4983834;28;20256;-83
2022/07/09 00:58:25;;;;;;;8.43;4.50;;;;;;;;;;5002450;28;20235;-84
2022/07/09 01:00:51;;;;;;;9.70;4.80;;;;;;;;;;4975623;28;20229;-84
2022/07/09 01:03:16;;;;;;;8.03;4.47;;;;;;;;;;5043550;28;20222;-83
2022/07/09 01:05:44;;;;;;;7.23;4.63;;;;;;;;;;4989232;28;20226;-84
2022/07/09 01:08:10;;;;;;;6.87;4.20;;;;;;;;;;4972352;28;20228;-85
2022/07/09 01:10:37;;;;;;;6.93;4.53;;;;;;;;;;4960368;28;20765;-85
2022/07/09 01:20:28;;;;;;;8.80;5.20;;;;;;;;;;5072944;28;20237;-72
2022/07/09 01:22:57;;;;;;;9.03;5.10;;;;;;;;;;5021915;28;20236;-72
2022/07/09 01:25:43;;;;;;;12.73;5.27;;;;;;;;;;4944188;28;20271;-72
2022/07/09 01:28:11;;;;;;;10.80;5.10;;;;;;;;;;4982977;28;20237;-73
2022/07/09 01:30:41;;;;;;;11.23;5.00;;;;;;;;;;4969830;28;20221;-72
2022/07/09 01:33:06;;;;;;;7.50;5.30;;;;;;;;;;4972227;28;20672;-72
2022/07/09 01:35:32;;;;;;;7.50;4.80;;;;;;;;;;4974502;28;20234;-73
2022/07/09 01:37:57;;;;;;;9.00;5.27;;;;;;;;;;4945901;28;20232;-72
2022/07/09 01:40:25;;;;;;;9.73;5.33;;;;;;;;;;4977142;28;20321;-72
2022/07/09 01:42:51;;;;;;;9.07;5.33;;;;;;;;;;4969346;28;20302;-72
2022/07/09 01:45:16;;;;;;;9.50;5.27;;;;;;;;;;4964494;28;20600;-74
2022/07/09 01:47:44;;;;;;;8.97;5.53;;;;;;;;;;4991490;28;20233;-72
2022/07/09 01:50:10;;;;;;;10.77;6.00;;;;;;;;;;4974291;28;20217;-72
2022/07/09 01:52:35;;;;;;;7.33;5.37;;;;;;;;;;4961943;28;20228;-72
2022/07/09 01:55:03;;;;;;;6.80;5.20;;;;;;;;;;4947637;28;20230;-72
2022/07/09 01:57:31;;;;;;;8.00;4.90;;;;;;;;;;4961123;28;20221;-72
2022/07/09 02:00:03;;;;;;;11.60;5.70;;;;;;;;;;4980341;28;20229;-72
2022/07/09 02:02:38;;;;;;;9.33;5.70;;;;;;;;;;4984165;28;20229;-72
2022/07/09 02:05:06;;;;;;;10.23;5.97;;;;;;;;;;4956385;28;20237;-72
2022/07/09 02:07:32;;;;;;;9.97;5.80;;;;;;;;;;4956811;28;20778;-72
2022/07/09 02:09:57;;;;;;;7.90;5.57;;;;;;;;;;4962568;28;20240;-72
2022/07/09 02:12:23;;;;;;;8.47;5.60;;;;;;;;;;4955657;28;20568;-72
2022/07/09 02:14:49;;;;;;;7.97;5.20;;;;;;;;;;4952317;28;20234;-72
2022/07/09 02:17:14;;;;;;;11.17;5.23;;;;;;;;;;4957570;28;20210;-72
2022/07/09 02:19:40;;;;;;;12.00;5.63;;;;;;;;;;4976226;28;20218;-70
2022/07/09 02:22:08;;;;;;;12.57;5.60;;;;;;;;;;4975384;28;20230;-73
2022/07/09 02:24:38;;;;;;;7.43;5.47;;;;;;;;;;4983873;28;20252;-71
2022/07/09 02:27:07;;;;;;;9.80;5.27;;;;;;;;;;4944729;28;20251;-72
2022/07/09 02:29:34;;;;;;;9.67;5.17;;;;;;;;;;4971944;28;20226;-72
2022/07/09 02:32:02;;;;;;;7.20;4.85;;;;;;;;;;4977814;28;20651;-72
2022/07/09 02:34:28;;;;;;;7.53;5.20;;;;;;;;;;4947579;28;20294;-72
2022/07/09 02:36:53;;;;;;;11.17;5.10;;;;;;;;;;4964869;28;20655;-73
2022/07/09 02:39:21;;;;;;;9.97;5.17;;;;;;;;;;4960714;28;20233;-73
2022/07/09 02:41:46;;;;;;;8.10;4.83;;;;;;;;;;4945911;28;20585;-72
2022/07/09 02:44:12;;;;;;;7.15;4.53;;;;;;;;;;4979291;28;20253;-72
2022/07/09 02:46:40;;;;;;;9.55;5.22;;;;;;;;;;4965420;28;20230;-72
2022/07/09 02:49:05;;;;;;;8.60;5.32;;;;;;;;;;4984160;28;20424;-72
2022/07/09 02:51:31;;;;;;;12.37;5.07;;;;;;;;;;4952086;28;20274;-72
2022/07/09 02:53:58;;;;;;;9.20;5.80;;;;;;;;;;4981946;28;20233;-73
2022/07/09 02:56:27;;;;;;;8.70;5.63;;;;;;;;;;4959991;28;20775;-73
2022/07/09 02:58:52;;;;;;;10.00;6.00;;;;;;;;;;4970639;28;20253;-73
2022/07/09 03:01:20;;;;;;;10.80;6.00;;;;;;;;;;4960997;28;20623;-73
2022/07/09 03:03:46;;;;;;;8.03;5.67;;;;;;;;;;4967308;28;20726;-73
2022/07/09 03:06:21;;;;;;;8.80;6.00;;;;;;;;;;4934566;28;20229;-73
2022/07/09 03:08:48;;;;;;;11.33;5.60;;;;;;;;;;4936061;28;20226;-72
2022/07/09 03:11:14;;;;;;;12.33;5.97;;;;;;;;;;4959393;28;20221;-72
2022/07/09 03:13:39;;;;;;;9.70;5.22;;;;;;;;;;4930482;28;20238;-70
2022/07/09 03:16:08;;;;;;;9.13;5.60;;;;;;;;;;4966026;28;20305;-69
2022/07/09 03:18:37;;;;;;;10.52;5.30;;;;;;;;;;4968639;28;20226;-71
2022/07/09 03:21:03;;;;;;;10.85;5.80;;;;;;;;;;4973186;28;20230;-70
2022/07/09 03:23:28;;;;;;;9.50;5.37;;;;;;;;;;4973702;28;20229;-70
2022/07/09 03:25:54;;;;;;;9.02;5.82;;;;;;;;;;4976783;28;20253;-69
2022/07/09 03:28:20;;;;;;;10.43;5.30;;;;;;;;;;4971058;28;20267;-69
2022/07/09 03:30:48;;;;;;;11.15;5.63;;;;;;;;;;4976803;28;20296;-71
2022/07/09 03:33:13;;;;;;;8.77;5.38;;;;;;;;;;4977652;28;20240;-71
2022/07/09 03:35:41;;;;;;;6.22;5.30;;;;;;;;;;4974608;28;20280;-70
2022/07/09 03:38:06;;;;;;;7.40;5.55;;;;;;;;;;4935190;28;20233;-69
2022/07/09 03:40:34;;;;;;;8.27;5.50;;;;;;;;;;4952991;28;20257;-71
2022/07/09 03:43:02;;;;;;;8.73;5.30;;;;;;;;;;4963362;28;20635;-69
2022/07/09 03:45:27;;;;;;;10.73;5.50;;;;;;;;;;4962006;28;20228;-70
2022/07/09 03:47:55;;;;;;;8.60;5.57;;;;;;;;;;4975451;28;20786;-71
2022/07/09 03:50:23;;;;;;;7.68;5.30;;;;;;;;;;4994795;28;20292;-73
2022/07/09 03:52:49;;;;;;;12.53;6.00;;;;;;;;;;4976053;28;20234;-73
2022/07/09 03:55:15;;;;;;;9.82;5.75;;;;;;;;;;4972101;28;20230;-73
2022/07/09 03:57:45;;;;;;;10.50;5.57;;;;;;;;;;4956975;28;20265;-74
2022/07/09 04:00:11;;;;;;;7.13;5.60;;;;;;;;;;4974380;28;20229;-74
2022/07/09 04:02:39;;;;;;;8.93;5.37;;;;;;;;;;4963214;28;20222;-73
2022/07/09 04:05:06;;;;;;;7.20;5.93;;;;;;;;;;4974575;28;20286;-74
2022/07/09 04:07:31;;;;;;;10.20;5.67;;;;;;;;;;4931103;28;20222;-73
2022/07/09 04:09:57;;;;;;;9.33;5.60;;;;;;;;;;4955711;28;20225;-74
2022/07/09 04:12:29;;;;;;;6.20;5.60;;;;;;;;;;4970667;28;20228;-72
2022/07/09 04:14:55;;;;;;;10.20;6.27;;;;;;;;;;4961530;28;20555;-72
2022/07/09 04:17:21;;;;;;;11.73;5.97;;;;;;;;;;4953773;28;20695;-72
2022/07/09 04:19:49;;;;;;;11.63;6.20;;;;;;;;;;4983615;28;20240;-71
2022/07/09 04:22:14;;;;;;;9.30;5.73;;;;;;;;;;4975699;28;20226;-72
2022/07/09 04:24:42;;;;;;;12.50;7.00;;;;;;;;;;4949212;28;20279;-72
2022/07/09 04:27:10;;;;;;;8.10;6.10;;;;;;;;;;4972498;28;20236;-71
2022/07/09 04:29:36;;;;;;;9.83;6.17;;;;;;;;;;4961981;28;20226;-71
2022/07/09 04:32:04;;;;;;;9.23;6.23;;;;;;;;;;4995240;28;20907;-74
2022/07/09 04:34:32;;;;;;;9.27;6.50;;;;;;;;;;4975132;28;20240;-72
2022/07/09 04:37:02;;;;;;;9.10;5.72;;;;;;;;;;4961739;28;20228;-71
2022/07/09 04:39:28;;;;;;;9.10;5.45;;;;;;;;;;4950919;28;20279;-72
2022/07/09 04:41:56;;;;;;;10.00;6.35;;;;;;;;;;4959031;28;20238;-72
2022/07/09 04:44:21;;;;;;;9.40;5.82;;;;;;;;;;4966221;28;20230;-74
2022/07/09 04:46:49;;;;;;;7.82;5.93;;;;;;;;;;4971996;28;20239;-71
2022/07/09 04:49:17;;;;;;;10.97;6.27;;;;;;;;;;4973529;28;20229;-71
2022/07/09 04:51:45;;;;;;;10.02;6.55;;;;;;;;;;4956753;28;20297;-72
2022/07/09 04:54:11;;;;;;;7.82;6.07;;;;;;;;;;4953547;28;20259;-73
2022/07/09 04:56:38;;;;;;;12.30;6.60;;;;;;;;;;4941807;28;20707;-72
2022/07/09 04:59:09;;;;;;;13.05;7.05;;;;;;;;;;4982051;28;20230;-72
2022/07/09 05:01:34;;;;;;;8.93;6.65;;;;;;;;;;4971339;28;20233;-73
2022/07/09 05:04:05;;;;;;;16.40;6.60;;;;;;;;;;4983000;28;20221;-73
2022/07/09 05:06:33;;;;;;;12.50;6.75;;;;;;;;;;4988503;28;20292;-73
2022/07/09 05:08:58;;;;;;;9.00;6.47;;;;;;;;;;4972627;28;20704;-73
2022/07/09 05:11:26;;;;;;;10.13;6.18;;;;;;;;;;4972411;28;20237;-71
2022/07/09 05:13:57;;;;;;;12.38;6.78;;;;;;;;;;4982864;28;20650;-72
2022/07/09 05:16:25;;;;;;;9.50;6.05;;;;;;;;;;4982903;28;20249;-73
2022/07/09 05:18:50;;;;;;;10.88;6.45;;;;;;;;;;4986917;28;20288;-72
2022/07/09 05:21:19;;;;;;;10.13;6.28;;;;;;;;;;4965182;28;20218;-71
2022/07/09 05:23:44;;;;;;;12.27;6.60;;;;;;;;;;4978909;28;20602;-70
2022/07/09 05:26:12;;;;;;;9.60;6.20;;;;;;;;;;4982048;28;20210;-72
2022/07/09 05:28:38;;;;;;;9.40;6.25;;;;;;;;;;4966462;28;20316;-74
2022/07/09 05:31:03;;;;;;;9.00;6.22;;;;;;;;;;4970194;28;20225;-73
2022/07/09 05:33:29;;;;;;;8.10;5.88;;;;;;;;;;4977698;28;20268;-71
2022/07/09 05:35:54;;;;;;;8.02;5.60;;;;;;;;;;4967824;28;20274;-71
2022/07/09 05:38:21;;;;;;;6.20;5.53;;;;;;;;;;4979233;28;20236;-73
2022/07/09 05:40:46;;;;;;;7.47;5.45;;;;;;;;;;4975430;28;20226;-70
2022/07/09 05:43:12;;;;;;;6.20;4.72;;;;;;;;;;4952181;28;20224;-70
2022/07/09 05:45:37;;;;;;;7.18;5.13;;;;;;;;;;4981366;28;20300;-70
2022/07/09 05:48:04;;;;;;;10.52;4.80;;;;;;;;;;4932220;28;20240;-70
2022/07/09 05:50:29;;;;;;;8.07;4.95;;;;;;;;;;4938842;28;20233;-70
2022/07/09 05:52:58;;;;;;;8.05;4.68;;;;;;;;;;4976136;28;20225;-71
2022/07/09 05:55:27;;;;;;;9.07;5.18;;;;;;;;;;4984330;28;20391;-70
2022/07/09 05:57:55;;;;;;;6.82;4.90;;;;;;;;;;4966451;28;20318;-72
2022/07/09 06:00:23;;;;;;;9.30;4.85;;;;;;;;;;4949889;28;20234;-72
2022/07/09 06:02:48;;;;;;;10.05;5.20;;;;;;;;;;4957082;28;20238;-72
2022/07/09 06:05:14;;;;;;;8.25;5.40;;;;;;;;;;4946238;28;20747;-71
2022/07/09 06:07:44;;;;;;;8.85;5.57;;;;;;;;;;4937444;28;20356;-72
2022/07/09 06:10:12;;;;;;;7.85;5.50;;;;;;;;;;4966646;28;20674;-72
2022/07/09 06:12:38;;;;;;;7.28;5.65;;;;;;;;;;4969410;28;20232;-72
2022/07/09 06:15:05;;;;;;;6.00;5.28;;;;;;;;;;4982840;28;20225;-71
2022/07/09 06:17:33;;;;;;;10.07;6.03;;;;;;;;;;4966412;28;20225;-70
2022/07/09 06:20:01;;;;;;;9.50;5.93;;;;;;;;;;4984540;28;20283;-71
2022/07/09 06:22:29;;;;;;;6.57;5.85;;;;;;;;;;4946162;28;20260;-71
2022/07/09 06:24:57;;;;;;;8.73;5.78;;;;;;;;;;4952224;28;20296;-71
2022/07/09 06:27:25;;;;;;;10.57;6.20;;;;;;;;;;4981922;28;20333;-71
2022/07/09 06:29:53;;;;;;;6.72;5.53;;;;;;;;;;4939051;28;20308;-72
2022/07/09 06:32:19;;;;;;;9.25;5.68;;;;;;;;;;4963790;28;20240;-74
2022/07/09 06:34:47;;;;;;;9.27;5.40;;;;;;;;;;4953350;28;20234;-72
2022/07/09 06:37:12;;;;;;;5.95;5.20;;;;;;;;;;4962094;28;20230;-71
2022/07/09 06:39:48;;;;;;;10.52;6.25;;;;;;;;;;4965546;28;20240;-72
2022/07/09 06:42:14;;;;;;;9.55;6.20;;;;;;;;;;4971188;28;20250;-71
2022/07/09 06:44:44;;;;;;;7.13;5.70;;;;;;;;;;4978436;28;20230;-72
2022/07/09 06:47:12;;;;;;;8.77;6.53;;;;;;;;;;4967879;28;20632;-72
2022/07/09 06:49:38;;;;;;;7.38;5.93;;;;;;;;;;4985581;28;20226;-73
2022/07/09 06:52:07;;;;;;;6.95;5.55;;;;;;;;;;4962655;28;20597;-72
2022/07/09 06:54:41;;;;;;;9.57;5.38;;;;;;;;;;4960831;28;20225;-72
2022/07/09 06:57:07;;;;;;;8.93;5.18;;;;;;;;;;4976763;28;20780;-71
2022/07/09 06:59:33;;;;;;;8.85;5.72;;;;;;;;;;4936575;28;20381;-72
2022/07/09 07:01:59;;;;;;;7.50;5.50;;;;;;;;;;4962826;28;20230;-72
2022/07/09 07:04:26;;;;;;;9.80;5.40;;;;;;;;;;4961377;28;20226;-72
2022/07/09 07:06:52;;;;;;;6.75;5.63;;;;;;;;;;4958551;28;20950;-72
2022/07/09 07:09:18;;;;;;;8.38;5.40;;;;;;;;;;4959628;28;20231;-73
2022/07/09 07:11:48;;;;;;;7.80;5.40;;;;;;;;;;4961110;28;20249;-72
2022/07/09 07:14:14;;;;;;;8.43;5.53;;;;;;;;;;4961122;28;20237;-73
2022/07/09 07:16:39;;;;;;;6.50;5.15;;;;;;;;;;4963203;28;20225;-73
2022/07/09 07:19:05;;;;;;;7.20;5.68;;;;;;;;;;4949624;28;20325;-72
2022/07/09 07:21:31;;;;;;;7.90;5.50;;;;;;;;;;4987555;28;20287;-72
2022/07/09 07:23:58;;;;;;;6.47;5.32;;;;;;;;;;4962208;28;20708;-71
2022/07/09 07:26:24;;;;;;;8.10;5.78;;;;;;;;;;4961955;28;20222;-73
2022/07/09 07:28:50;;;;;;;5.60;5.05;;;;;;;;;;4980690;28;20218;-72
2022/07/09 07:31:15;;;;;;;6.10;5.38;;;;;;;;;;4976264;28;20222;-72
2022/07/09 07:33:48;;;;;;;5.05;4.60;;;;;;;;;;4952613;28;20722;-71
2022/07/09 07:36:13;;;;;;;5.43;4.90;;;;;;;;;;4971972;28;20214;-71
2022/07/09 07:38:39;;;;;;;7.47;5.20;;;;;;;;;;4983908;28;20307;-72
2022/07/09 07:41:05;;;;;;;6.13;5.53;;;;;;;;;;4962434;28;20214;-72
2022/07/09 07:43:33;;;;;;;7.03;5.10;;;;;;;;;;4977657;28;20237;-72
2022/07/09 07:45:58;;;;;;;5.63;5.13;;;;;;;;;;4982012;28;20228;-73
2022/07/09 07:48:27;;;;;;;9.65;6.40;;;;;;;;;;4963160;28;20230;-73
2022/07/09 07:50:55;;;;;;;8.40;6.80;;;;;;;;;;4965977;28;20248;-72
2022/07/09 07:53:21;;;;;;;7.38;6.68;;;;;;;;;;4970053;28;20585;-72
2022/07/09 07:55:46;;;;;;;8.73;6.60;;;;;;;;;;4981740;28;20320;-74
2022/07/09 07:58:12;;;;;;;10.02;7.50;;;;;;;;;;4947017;28;20226;-72
2022/07/09 08:00:38;;;;;;;10.07;7.43;;;;;;;;;;4942203;28;20712;-73
2022/07/09 08:03:03;;;;;;;8.85;7.63;;;;;;;;;;4941994;28;20648;-73
2022/07/09 08:05:32;;;;;;;9.07;8.20;;;;;;;;;;4946159;28;20225;-73
2022/07/09 08:07:58;;;;;;;8.50;7.68;;;;;;;;;;4962501;28;20245;-74
2022/07/09 08:10:26;;;;;;;9.00;8.10;;;;;;;;;;4979312;28;20254;-72
2022/07/09 08:12:52;;;;;;;9.20;8.23;;;;;;;;;;4994180;28;21007;-72
2022/07/09 08:15:17;;;;;;;8.68;7.80;;;;;;;;;;4979954;28;20225;-73
2022/07/09 08:17:44;;;;;;;7.65;6.90;;;;;;;;;;4944529;28;20238;-72
2022/07/09 08:20:10;;;;;;;7.28;6.47;;;;;;;;;;4983169;28;20226;-74
2022/07/09 08:22:38;;;;;;;8.45;7.20;;;;;;;;;;4949355;28;20684;-72
2022/07/09 08:25:06;;;;;;;8.18;7.38;;;;;;;;;;4991211;28;20213;-74
2022/07/09 08:27:32;;;;;;;7.60;6.80;;;;;;;;;;4966654;28;20235;-76
2022/07/09 08:29:57;;;;;;;8.45;7.13;;;;;;;;;;4979151;28;20271;-73
2022/07/09 08:32:23;;;;;;;7.43;5.93;;;;;;;;;;4961628;28;20221;-73
2022/07/09 08:34:49;;;;;;;6.70;5.80;;;;;;;;;;4966314;28;20237;-73
2022/07/09 08:37:14;;;;;;;6.18;5.60;;;;;;;;;;4962160;28;20213;-74
2022/07/09 08:39:42;;;;;;;5.22;4.78;;;;;;;;;;4962459;28;20312;-73
2022/07/09 08:42:10;;;;;;;6.82;4.40;;;;;;;;;;4938926;28;20426;-72
2022/07/09 08:44:42;;;;;;;8.07;5.13;;;;;;;;;;4960023;28;20368;-73
2022/07/09 08:47:11;;;;;;;5.85;3.80;;;;;;;;;;4974345;28;20304;-71
2022/07/09 08:49:39;;;;;;;5.88;3.58;;;;;;;;;;4970256;28;20624;-73
2022/07/09 08:52:05;;;;;;;3.53;3.22;;;;;;;;;;4975950;28;20304;-73
2022/07/09 08:54:32;;;;;;;4.63;3.00;;;;;;;;;;4958524;28;20226;-72
2022/07/09 08:57:00;;;;;;;3.42;3.13;;;;;;;;;;4959337;28;20221;-72
2022/07/09 08:59:26;;;;;;;4.93;3.28;;;;;;;;;;4959312;28;20236;-72
2022/07/09 09:01:51;;;;;;;4.30;2.75;;;;;;;;;;4973525;28;20351;-72
2022/07/09 09:04:19;;;;;;;4.38;2.88;;;;;;;;;;4973677;28;20233;-72
2022/07/09 09:06:45;;;;;;;5.43;3.10;;;;;;;;;;4949742;28;20236;-72
2022/07/09 09:09:19;;;;;;;3.65;2.53;;;;;;;;;;4927136;28;20213;-73
2022/07/09 09:11:49;;;;;;;6.70;2.92;;;;;;;;;;4962060;28;20224;-73
2022/07/09 09:14:20;;;;;;;3.17;2.40;;;;;;;;;;4974508;28;20213;-72
2022/07/09 09:16:45;;;;;;;6.40;2.80;;;;;;;;;;4948872;28;20324;-73
2022/07/09 09:19:11;;;;;;;4.13;2.47;;;;;;;;;;4960601;28;20305;-72
2022/07/09 09:21:36;;;;;;;4.47;2.33;;;;;;;;;;4958189;28;20222;-73
2022/07/09 09:24:05;;;;;;;4.18;1.90;;;;;;;;;;4946038;28;20847;-74
2022/07/09 09:26:30;;;;;;;5.13;1.95;;;;;;;;;;4957683;28;20225;-73
2022/07/09 09:29:03;;;;;;;4.65;2.10;;;;;;;;;;4985962;28;20233;-72
2022/07/09 09:31:30;;;;;;;4.13;2.08;;;;;;;;;;4977096;28;20611;-75
2022/07/09 09:34:09;;;;;;;5.72;2.30;;;;;;;;;;4976954;28;20245;-73
2022/07/09 09:36:40;;;;;;;3.05;1.75;;;;;;;;;;4987782;28;20298;-72
2022/07/09 09:39:15;;;;;;;4.03;2.00;;;;;;;;;;4970599;28;20249;-72
2022/07/09 09:41:44;;;;;;;2.63;1.60;;;;;;;;;;4981291;28;20232;-73
2022/07/09 09:44:12;;;;;;;3.08;1.67;;;;;;;;;;4961946;28;20791;-73
2022/07/09 09:46:38;;;;;;;1.60;1.50;;;;;;;;;;4971337;28;20244;-72
2022/07/09 09:49:07;;;;;;;2.40;1.48;;;;;;;;;;4956565;28;20230;-73
2022/07/09 09:51:53;;;;;;;1.30;1.20;;;;;;;;;;4983296;28;20503;-72
2022/07/09 09:54:19;;;;;;;3.38;1.45;;;;;;;;;;4967809;28;20217;-74
2022/07/09 09:56:45;;;;;;;1.42;1.30;;;;;;;;;;4931470;28;20234;-73
2022/07/09 09:59:11;;;;;;;3.13;1.30;;;;;;;;;;4975525;28;20576;-73
2022/07/09 10:01:37;;;;;;;2.15;1.00;;;;;;;;;;4952348;28;20269;-71
2022/07/09 10:04:04;;;;;;;2.80;1.63;;;;;;;;;;4971070;28;20242;-72
2022/07/09 10:06:35;;;;;;;2.58;1.33;;;;;;;;;;4949684;28;20246;-73
2022/07/09 10:09:01;;;;;;;1.42;1.33;;;;;;;;;;4973167;28;20226;-73
2022/07/09 10:11:48;;;;;;;2.17;1.30;;;;;;;;;;4959791;28;20229;-72
2022/07/09 10:14:23;;;;;;;1.60;1.00;;;;;;;;;;4947980;28;20312;-73
2022/07/09 10:16:48;;;;;;;0.95;0.85;;;;;;;;;;4981732;28;20245;-73
2022/07/09 10:19:24;;;;;;;2.72;1.00;;;;;;;;;;4993945;28;20218;-73
2022/07/09 10:21:54;;;;;;;1.40;1.20;;;;;;;;;;4962260;28;20233;-74
2022/07/09 10:24:24;;;;;;;2.15;1.40;;;;;;;;;;4962599;28;20228;-73
2022/07/09 10:26:55;;;;;;;1.50;1.27;;;;;;;;;;4948526;28;20249;-73
2022/07/09 10:29:29;;;;;;;1.38;0.90;;;;;;;;;;4967337;28;20222;-72
2022/07/09 10:31:56;;;;;;;1.60;1.20;;;;;;;;;;4975145;28;20304;-73
2022/07/09 10:34:30;;;;;;;1.55;1.25;;;;;;;;;;4978418;28;20230;-73
2022/07/09 10:37:00;;;;;;;2.42;1.02;;;;;;;;;;4975451;28;20237;-72
2022/07/09 10:39:29;;;;;;;1.45;1.00;;;;;;;;;;4969607;28;20226;-73
2022/07/09 10:42:17;;;;;;;3.22;1.10;;;;;;;;;;4969017;28;20223;-72
2022/07/09 10:44:45;;;;;;;2.83;1.23;;;;;;;;;;4981468;28;20234;-72
2022/07/09 10:47:11;;;;;;;2.00;0.93;;;;;;;;;;4964467;28;20519;-72
2022/07/09 10:49:37;;;;;;;3.67;1.17;;;;;;;;;;4946880;28;20271;-73
2022/07/09 10:52:06;;;;;;;2.67;1.02;;;;;;;;;;4977549;28;20705;-72
2022/07/09 10:54:32;;;;;;;3.17;1.30;;;;;;;;;;4968920;28;20236;-72
2022/07/09 10:56:57;;;;;;;0.93;0.93;;;;;;;;;;4961466;28;20317;-73
2022/07/09 10:59:24;;;;;;;1.30;1.20;;;;;;;;;;4975617;28;20778;-73
2022/07/09 11:01:52;;;;;;;2.13;1.20;;;;;;;;;;4952990;28;20654;-73
2022/07/09 11:04:27;;;;;;;1.80;1.00;;;;;;;;;;4977302;28;20610;-73
2022/07/09 11:06:55;;;;;;;2.00;1.15;;;;;;;;;;4952802;28;20222;-74
2022/07/09 11:09:21;;;;;;;1.52;1.42;;;;;;;;;;4934750;28;20213;-74
2022/07/09 11:11:51;;;;;;;3.92;1.50;;;;;;;;;;4981526;28;20252;-72
2022/07/09 11:14:17;;;;;;;2.13;1.00;;;;;;;;;;4977986;28;20240;-73
2022/07/09 11:16:53;;;;;;;1.00;0.90;;;;;;;;;;4972441;28;20249;-74
2022/07/09 11:19:19;;;;;;;2.92;1.02;;;;;;;;;;4947075;28;20228;-75
2022/07/09 11:21:47;;;;;;;2.80;1.10;;;;;;;;;;4991778;28;20728;-72
2022/07/09 11:24:19;;;;;;;2.28;0.90;;;;;;;;;;4964036;28;20300;-72
2022/07/09 11:26:47;;;;;;;1.23;0.95;;;;;;;;;;4962671;28;20344;-73
2022/07/09 11:29:16;;;;;;;2.22;1.10;;;;;;;;;;4987480;28;20218;-72
2022/07/09 11:31:51;;;;;;;1.25;1.08;;;;;;;;;;4972908;28;20233;-73
2022/07/09 11:34:21;;;;;;;1.30;0.93;;;;;;;;;;4966538;28;20708;-72
2022/07/09 11:36:56;;;;;;;1.27;0.93;;;;;;;;;;4993562;28;20300;-72
2022/07/09 11:39:34;;;;;;;1.05;0.88;;;;;;;;;;4935660;28;20229;-72
2022/07/09 11:42:00;;;;;;;1.40;0.70;;;;;;;;;;4962606;28;20230;-74
2022/07/09 11:44:28;;;;;;;0.82;0.60;;;;;;;;;;4967336;28;20605;-75
2022/07/09 11:47:03;;;;;;;1.83;0.90;;;;;;;;;;4967354;28;20703;-73
2022/07/09 11:49:36;;;;;;;1.65;0.70;;;;;;;;;;4983883;28;20221;-73
2022/07/09 11:52:03;;;;;;;0.85;0.63;;;;;;;;;;4968169;28;20606;-74
2022/07/09 11:54:29;;;;;;;1.02;0.80;;;;;;;;;;4981976;28;20226;-73
2022/07/09 11:56:57;;;;;;;0.80;0.80;;;;;;;;;;4945565;28;20229;-74
2022/07/09 11:59:31;;;;;;;1.90;1.00;;;;;;;;;;4944873;28;20680;-75
2022/07/09 12:01:57;;;;;;;2.60;0.90;;;;;;;;;;4966723;28;20367;-73
2022/07/09 12:04:23;;;;;;;1.83;1.00;;;;;;;;;;4976388;28;20752;-74
2022/07/09 12:06:54;;;;;;;1.70;0.80;;;;;;;;;;4974238;28;20367;-73
2022/07/09 12:09:32;;;;;;;1.33;0.90;;;;;;;;;;4965388;28;20236;-74
2022/07/09 12:12:00;;;;;;;2.65;0.82;;;;;;;;;;4970878;28;20237;-74
2022/07/09 12:14:29;;;;;;;2.05;1.00;;;;;;;;;;4975450;28;20234;-73
2022/07/09 12:16:54;;;;;;;3.03;0.90;;;;;;;;;;4945773;28;20319;-74
2022/07/09 12:19:20;;;;;;;1.58;0.80;;;;;;;;;;4981175;28;20221;-74
2022/07/09 12:21:48;;;;;;;1.63;1.00;;;;;;;;;;4985511;28;20233;-73
2022/07/09 12:24:15;;;;;;;4.10;1.05;;;;;;;;;;4945930;28;20226;-75
2022/07/09 12:26:41;;;;;;;3.25;1.10;;;;;;;;;;4947515;28;20286;-73
2022/07/09 12:29:07;;;;;;;1.00;0.70;;;;;;;;;;4958538;28;20222;-74
2022/07/09 12:31:36;;;;;;;1.60;0.90;;;;;;;;;;4965900;28;20665;-74
2022/07/09 12:34:04;;;;;;;2.78;1.17;;;;;;;;;;4942505;28;20287;-75
2022/07/09 12:36:33;;;;;;;8.48;1.42;;;;;;;;;;4959968;28;20711;-73
2022/07/09 12:38:58;;;;;;;1.45;0.90;;;;;;;;;;4964723;28;21047;-73
2022/07/09 12:41:24;;;;;;;1.15;0.90;;;;;;;;;;4967334;28;20229;-72
2022/07/09 12:43:50;;;;;;;1.60;1.00;;;;;;;;;;4982696;28;20237;-77
2022/07/09 12:46:18;;;;;;;3.60;0.93;;;;;;;;;;4960062;28;20705;-72
2022/07/09 12:48:43;;;;;;;4.63;0.88;;;;;;;;;;4962323;28;20226;-73
2022/07/09 12:51:11;;;;;;;3.13;0.90;;;;;;;;;;4983640;28;20213;-76
2022/07/09 12:53:39;;;;;;;1.33;0.85;;;;;;;;;;4962315;28;20259;-73
2022/07/09 12:56:05;;;;;;;1.80;1.00;;;;;;;;;;4979859;28;20229;-73
2022/07/09 12:58:30;;;;;;;4.15;1.00;;;;;;;;;;4977063;28;20442;-71
2022/07/09 13:00:56;;;;;;;1.85;1.10;;;;;;;;;;4956974;28;20233;-75
2022/07/09 13:03:22;;;;;;;2.20;1.10;;;;;;;;;;4953698;28;20268;-73
2022/07/09 13:05:50;;;;;;;1.23;1.00;;;;;;;;;;4983158;28;20232;-74
2022/07/09 13:08:18;;;;;;;2.85;1.10;;;;;;;;;;4954922;28;20609;-74
2022/07/09 13:10:43;;;;;;;1.10;0.90;;;;;;;;;;4958256;28;20647;-74
2022/07/09 13:13:09;;;;;;;1.77;0.90;;;;;;;;;;4960043;28;20229;-75
2022/07/09 13:15:34;;;;;;;2.70;1.17;;;;;;;;;;4982656;28;20288;-76
2022/07/09 13:18:00;;;;;;;1.10;0.90;;;;;;;;;;4997992;28;20605;-74
2022/07/09 13:20:26;;;;;;;2.42;0.80;;;;;;;;;;4980925;28;20237;-77
2022/07/09 13:22:51;;;;;;;3.55;1.30;;;;;;;;;;4960818;28;20234;-74
2022/07/09 13:25:19;;;;;;;14.20;1.75;;;;;;;;;;4960920;28;20693;-74
2022/07/09 13:27:45;;;;;;;5.70;1.45;;;;;;;;;;4963109;28;20229;-76
2022/07/09 13:30:11;;;;;;;2.47;1.27;;;;;;;;;;4936894;28;20230;-74
2022/07/09 13:32:39;;;;;;;1.00;0.70;;;;;;;;;;4961062;28;20242;-74
2022/07/09 13:35:07;;;;;;;3.28;1.25;;;;;;;;;;4964211;28;20282;-73
2022/07/09 13:37:35;;;;;;;2.75;1.15;;;;;;;;;;4973730;28;20776;-74
2022/07/09 13:40:01;;;;;;;4.97;1.25;;;;;;;;;;4967427;28;20226;-74
2022/07/09 13:42:26;;;;;;;4.05;1.00;;;;;;;;;;4953945;28;20226;-73
2022/07/09 13:44:52;;;;;;;2.80;1.00;;;;;;;;;;4971440;28;20890;-72
2022/07/09 13:47:18;;;;;;;5.32;1.10;;;;;;;;;;4966502;28;20221;-74
2022/07/09 13:49:43;;;;;;;2.00;0.95;;;;;;;;;;4971573;28;20244;-73
2022/07/09 13:52:09;;;;;;;1.75;1.05;;;;;;;;;;4982982;28;20304;-73
2022/07/09 13:54:37;;;;;;;1.23;0.98;;;;;;;;;;4983652;28;20234;-74
2022/07/09 13:57:03;;;;;;;2.60;1.20;;;;;;;;;;4983689;28;20242;-74
2022/07/09 13:59:28;;;;;;;1.50;1.10;;;;;;;;;;4966696;28;20233;-73
2022/07/09 14:01:56;;;;;;;2.95;1.10;;;;;;;;;;4957967;28;20233;-74
2022/07/09 14:04:22;;;;;;;2.25;1.13;;;;;;;;;;4954343;28;20218;-73
2022/07/09 14:06:51;;;;;;;3.63;1.10;;;;;;;;;;4933067;28;20245;-73
2022/07/09 14:09:17;;;;;;;2.92;1.30;;;;;;;;;;4952864;28;21377;-74
2022/07/09 14:11:43;;;;;;;3.10;0.90;;;;;;;;;;4952230;28;20618;-74
2022/07/09 14:14:08;;;;;;;2.83;1.00;;;;;;;;;;4950622;28;20745;-72
2022/07/09 14:16:34;;;;;;;2.58;1.00;;;;;;;;;;4978888;28;20664;-75
2022/07/09 14:18:59;;;;;;;1.50;0.90;;;;;;;;;;4960745;28;20230;-74
2022/07/09 14:21:25;;;;;;;3.05;1.20;;;;;;;;;;4962169;28;20221;-73
2022/07/09 14:23:51;;;;;;;3.00;0.90;;;;;;;;;;4972417;28;20283;-74
2022/07/09 14:26:16;;;;;;;3.47;1.23;;;;;;;;;;4965215;28;20858;-74
2022/07/09 14:28:42;;;;;;;1.70;0.98;;;;;;;;;;4968822;28;20225;-74
2022/07/09 14:31:08;;;;;;;1.45;0.60;;;;;;;;;;4959541;28;20553;-74
2022/07/09 14:33:34;;;;;;;1.67;1.00;;;;;;;;;;4969141;28;20233;-73
2022/07/09 14:36:02;;;;;;;1.35;1.10;;;;;;;;;;4960630;28;20245;-74
2022/07/09 14:38:27;;;;;;;6.70;1.08;;;;;;;;;;4958643;28;20302;-73
2022/07/09 14:40:53;;;;;;;2.47;1.00;;;;;;;;;;4981178;28;20233;-73
2022/07/09 14:43:18;;;;;;;3.22;1.10;;;;;;;;;;4966106;28;20248;-74
2022/07/09 14:45:46;;;;;;;3.63;1.30;;;;;;;;;;4982473;28;20237;-73
2022/07/09 14:48:13;;;;;;;1.63;1.00;;;;;;;;;;4977268;28;20224;-73
2022/07/09 14:50:39;;;;;;;4.80;1.00;;;;;;;;;;4962006;28;20221;-74
2022/07/09 14:53:05;;;;;;;3.60;1.30;;;;;;;;;;4965785;28;20233;-73